createdAt,value
2023-03-20T00:03:06.919Z,95495.81
2023-03-20T00:06:52.356Z,95495.78
2023-03-20T00:10:37.725Z,95500.84
2023-03-20T00:14:22.487Z,95499.44
2023-03-20T00:18:13.279Z,95500.44
2023-03-20T00:21:58.982Z,95495.38
2023-03-20T00:25:43.229Z,95496.38
2023-03-20T00:29:27.621Z,95499.00
2023-03-20T00:33:11.844Z,95494.34
2023-03-20T00:36:55.000Z,95496.34
2023-03-20T00:40:37.723Z,95492.72
2023-03-20T00:44:23.339Z,95496.97
2023-03-20T00:48:07.799Z,95499.72
2023-03-20T00:51:52.323Z,95504.09
2023-03-20T00:55:35.326Z,95494.44
2023-03-20T00:59:20.183Z,95505.72
2023-03-20T01:03:04.033Z,95495.22
2023-03-20T01:06:47.315Z,95498.84
2023-03-20T01:10:33.524Z,95503.34
2023-03-20T01:14:17.956Z,95495.00
2023-03-20T01:18:00.859Z,95499.22
2023-03-20T01:21:44.035Z,95494.00
2023-03-20T01:25:27.112Z,95494.00
2023-03-20T01:29:19.023Z,95493.81
2023-03-20T01:33:03.014Z,95499.84
2023-03-20T01:36:50.370Z,95506.72
2023-03-20T01:40:34.812Z,95494.84
2023-03-20T01:44:23.212Z,95500.47
2023-03-20T01:48:14.560Z,95500.66
2023-03-20T01:51:58.273Z,95495.63
2023-03-20T01:55:42.651Z,95492.00
2023-03-20T01:59:28.503Z,95486.75
2023-03-20T02:03:11.341Z,95494.00
2023-03-20T02:06:54.104Z,95495.00
2023-03-20T02:10:36.934Z,95495.38
2023-03-20T02:14:19.825Z,95493.13
2023-03-20T02:18:04.104Z,95497.81
2023-03-20T02:22:26.390Z,95491.31
2023-03-20T02:26:23.662Z,95497.75
2023-03-20T02:30:51.352Z,95489.31
2023-03-20T02:34:52.849Z,95494.38
2023-03-20T02:39:01.460Z,95493.56
2023-03-20T02:42:46.670Z,95498.38
2023-03-20T02:46:35.409Z,95490.88
2023-03-20T02:50:20.992Z,95497.13
2023-03-20T02:54:09.433Z,95491.25
2023-03-20T02:57:58.588Z,95482.19
2023-03-20T03:01:44.007Z,95488.25
2023-03-20T03:05:31.046Z,95498.75
2023-03-20T03:09:18.631Z,95504.00
2023-03-20T03:13:02.212Z,95490.31
2023-03-20T03:16:46.053Z,95496.75
2023-03-20T03:20:32.372Z,95502.38
2023-03-20T03:24:40.265Z,95495.94
2023-03-20T03:28:28.797Z,95492.50
2023-03-20T03:32:24.467Z,95498.75
2023-03-20T03:36:12.205Z,95501.75
2023-03-20T03:40:03.266Z,95506.72
2023-03-20T03:43:49.724Z,95512.59
2023-03-20T03:47:34.677Z,95508.69
2023-03-20T03:51:19.059Z,95503.13
2023-03-20T03:55:04.975Z,95519.81
2023-03-20T03:58:49.826Z,95513.94
2023-03-20T04:02:32.537Z,95521.19
2023-03-20T04:06:16.874Z,95527.44
2023-03-20T04:09:59.639Z,95527.63
2023-03-20T04:13:43.788Z,95536.22
2023-03-20T04:17:26.449Z,95529.91
2023-03-20T04:21:09.524Z,95548.75
2023-03-20T04:24:52.658Z,95547.47
2023-03-20T04:28:35.393Z,95542.16
2023-03-20T04:32:19.505Z,95547.38
2023-03-20T04:36:02.279Z,95551.06
2023-03-20T04:39:45.012Z,95549.75
2023-03-20T04:43:27.691Z,95555.00
2023-03-20T04:47:10.365Z,95557.50
2023-03-20T04:50:54.411Z,95557.50
2023-03-20T04:54:37.117Z,95564.66
2023-03-20T04:58:19.793Z,95558.16
2023-03-20T05:02:02.421Z,95562.13
2023-03-20T05:05:45.398Z,95556.97
2023-03-20T05:09:29.505Z,95563.56
2023-03-20T05:13:12.443Z,95564.13
2023-03-20T05:16:55.539Z,95566.91
2023-03-20T05:20:41.010Z,95577.13
2023-03-20T05:24:23.765Z,95575.50
2023-03-20T05:28:07.904Z,95577.47
2023-03-20T05:31:50.671Z,95588.22
2023-03-20T05:35:33.586Z,95592.84
2023-03-20T05:39:16.568Z,95603.56
2023-03-20T05:42:59.202Z,95599.78
2023-03-20T05:46:43.277Z,95603.56
2023-03-20T05:50:25.929Z,95602.94
2023-03-20T05:54:08.604Z,95608.72
2023-03-20T05:57:51.261Z,95615.13
2023-03-20T06:01:33.960Z,95623.34
2023-03-20T06:05:18.157Z,95619.75
2023-03-20T06:09:00.876Z,95624.16
2023-03-20T06:12:43.630Z,95629.22
2023-03-20T06:16:27.328Z,95635.91
2023-03-20T06:20:11.384Z,95638.34
2023-03-20T06:23:56.676Z,95633.72
2023-03-20T06:27:39.445Z,95640.88
2023-03-20T06:31:22.248Z,95649.38
2023-03-20T06:35:06.056Z,95647.28
2023-03-20T06:38:48.738Z,95654.88
2023-03-20T06:42:32.853Z,95659.47
2023-03-20T06:46:15.668Z,95644.56
2023-03-20T06:49:58.314Z,95644.47
2023-03-20T06:53:41.649Z,95644.13
2023-03-20T06:57:24.380Z,95646.38
2023-03-20T07:01:12.048Z,95643.41
2023-03-20T07:04:54.794Z,95639.09
2023-03-20T07:08:37.542Z,95644.88
2023-03-20T07:12:20.820Z,95650.66
2023-03-20T07:16:05.232Z,95662.44
2023-03-20T07:19:49.476Z,95663.88
2023-03-20T07:23:34.337Z,95662.06
2023-03-20T07:27:17.890Z,95674.91
2023-03-20T07:31:00.835Z,95670.94
2023-03-20T07:34:43.715Z,95676.53
2023-03-20T07:38:27.804Z,95671.28
2023-03-20T07:42:10.508Z,95678.78
2023-03-20T07:45:53.187Z,95689.53
2023-03-20T07:49:36.342Z,95693.41
2023-03-20T07:53:19.400Z,95688.44
2023-03-20T07:57:05.403Z,95686.91
2023-03-20T08:00:48.124Z,95694.94
2023-03-20T08:04:30.796Z,95684.38
2023-03-20T08:08:13.778Z,95683.38
2023-03-20T08:11:56.630Z,95703.28
2023-03-20T08:15:40.856Z,95688.06
2023-03-20T08:19:24.209Z,95700.88
2023-03-20T08:23:08.008Z,95685.22
2023-03-20T08:26:50.687Z,95691.16
2023-03-20T08:30:33.408Z,95691.34
2023-03-20T08:34:17.512Z,95690.72
2023-03-20T08:38:00.350Z,95686.63
2023-03-20T08:41:45.850Z,95679.66
2023-03-20T08:45:30.744Z,95669.88
2023-03-20T08:49:13.593Z,95664.16
2023-03-20T08:52:57.625Z,95671.59
2023-03-20T08:56:40.428Z,95677.28
2023-03-20T09:00:24.205Z,95672.31
2023-03-20T09:04:06.923Z,95674.59
2023-03-20T09:07:49.620Z,95679.56
2023-03-20T09:11:34.291Z,95678.75
2023-03-20T09:15:17.092Z,95673.66
2023-03-20T09:18:59.887Z,95679.34
2023-03-20T09:22:43.822Z,95676.53
2023-03-20T09:26:29.129Z,95691.47
2023-03-20T09:30:14.828Z,95691.91
2023-03-20T09:33:57.446Z,95685.91
2023-03-20T09:37:40.193Z,95685.13
2023-03-20T09:41:26.130Z,95679.72
2023-03-20T09:45:15.672Z,95677.91
2023-03-20T09:49:04.127Z,95677.06
2023-03-20T09:52:53.173Z,95676.22
2023-03-20T09:56:36.123Z,95670.63
2023-03-20T10:00:22.331Z,95669.41
2023-03-20T10:04:09.252Z,95670.03
2023-03-20T10:07:53.563Z,95680.38
2023-03-20T10:11:51.804Z,95666.25
2023-03-20T10:15:44.762Z,95664.25
2023-03-20T10:19:30.064Z,95654.19
2023-03-20T10:23:18.054Z,95656.19
2023-03-20T10:27:07.824Z,95663.31
2023-03-20T10:30:58.559Z,95662.94
2023-03-20T10:34:51.383Z,95653.06
2023-03-20T10:38:37.950Z,95658.91
2023-03-20T10:42:22.848Z,95649.59
2023-03-20T10:46:11.720Z,95645.34
2023-03-20T10:49:56.888Z,95634.81
2023-03-20T10:53:46.511Z,95642.94
2023-03-20T10:57:32.008Z,95638.06
2023-03-20T11:01:16.236Z,95633.59
2023-03-20T11:05:01.565Z,95629.16
2023-03-20T11:08:48.830Z,95629.94
2023-03-20T11:12:34.442Z,95627.53
2023-03-20T11:16:24.227Z,95619.47
2023-03-20T11:20:08.346Z,95636.88
2023-03-20T11:24:00.833Z,95635.91
2023-03-20T11:27:43.773Z,95638.91
2023-03-20T11:31:32.449Z,95623.09
2023-03-20T11:35:24.941Z,95618.63
2023-03-20T11:39:11.724Z,95623.88
2023-03-20T11:42:55.671Z,95619.44
2023-03-20T11:46:39.723Z,95613.38
2023-03-20T11:50:32.800Z,95616.63
2023-03-20T11:54:17.627Z,95608.50
2023-03-20T11:58:01.357Z,95606.09
2023-03-20T12:01:47.251Z,95610.56
2023-03-20T12:05:32.880Z,95605.25
2023-03-20T12:09:26.965Z,95622.28
2023-03-20T12:13:14.608Z,95611.16
2023-03-20T12:17:07.441Z,95602.44
2023-03-20T12:20:58.576Z,95604.06
2023-03-20T12:24:45.258Z,95598.16
2023-03-20T12:28:33.465Z,95602.03
2023-03-20T12:32:21.720Z,95608.91
2023-03-20T12:36:06.269Z,95609.72
2023-03-20T12:39:51.015Z,95598.34
2023-03-20T12:43:41.341Z,95598.97
2023-03-20T12:47:42.150Z,95592.69
2023-03-20T12:51:43.957Z,95592.66
2023-03-20T12:55:34.955Z,95595.91
2023-03-20T12:59:28.779Z,95589.81
2023-03-20T13:03:46.850Z,95604.78
2023-03-20T13:07:42.664Z,95597.47
2023-03-20T13:11:30.764Z,95594.66
2023-03-20T13:15:23.311Z,95596.66
2023-03-20T13:19:12.741Z,95588.59
2023-03-20T13:23:01.006Z,95583.75
2023-03-20T13:26:49.157Z,95584.56
2023-03-20T13:30:35.954Z,95587.00
2023-03-20T13:34:33.667Z,95580.34
2023-03-20T13:38:19.983Z,95592.28
2023-03-20T13:42:03.882Z,95570.69
2023-03-20T13:45:47.544Z,95577.47
2023-03-20T13:49:36.320Z,95570.28
2023-03-20T13:53:28.412Z,95566.66
2023-03-20T13:57:17.774Z,95563.25
2023-03-20T14:01:03.463Z,95556.72
2023-03-20T14:04:48.334Z,95553.09
2023-03-20T14:08:35.482Z,95549.44
2023-03-20T14:12:19.958Z,95548.84
2023-03-20T14:16:04.302Z,95548.03
2023-03-20T14:19:49.010Z,95550.56
2023-03-20T14:23:36.880Z,95548.25
2023-03-20T14:27:36.767Z,95539.75
2023-03-20T14:31:28.014Z,95535.63
2023-03-20T14:35:24.964Z,95532.97
2023-03-20T14:39:14.874Z,95541.44
2023-03-20T14:43:00.445Z,95530.44
2023-03-20T14:46:49.449Z,95529.13
2023-03-20T14:50:36.413Z,95527.56
2023-03-20T14:54:28.155Z,95534.72
2023-03-20T14:58:34.907Z,95535.13
2023-03-20T15:02:26.819Z,95534.16
2023-03-20T15:06:11.704Z,95522.41
2023-03-20T15:09:56.596Z,95531.38
2023-03-20T15:13:44.056Z,95526.19
2023-03-20T15:17:28.637Z,95521.75
2023-03-20T15:21:17.222Z,95521.03
2023-03-20T15:24:59.876Z,95527.97
2023-03-20T15:28:44.339Z,95513.78
2023-03-20T15:32:27.202Z,95521.34
2023-03-20T15:36:11.600Z,95518.78
2023-03-20T15:39:56.882Z,95516.59
2023-03-20T15:43:42.487Z,95520.47
2023-03-20T15:47:26.372Z,95523.72
2023-03-20T15:51:11.380Z,95520.50
2023-03-20T15:54:55.633Z,95516.63
2023-03-20T15:58:39.241Z,95514.78
2023-03-20T16:02:21.961Z,95520.03
2023-03-20T16:06:06.327Z,95518.44
2023-03-20T16:09:50.861Z,95518.50
2023-03-20T16:13:39.013Z,95510.81
2023-03-20T16:17:23.841Z,95508.00
2023-03-20T16:21:08.404Z,95501.50
2023-03-20T16:24:52.898Z,95505.53
2023-03-20T16:28:38.652Z,95506.38
2023-03-20T16:32:27.012Z,95497.25
2023-03-20T16:36:18.780Z,95490.16
2023-03-20T16:40:20.053Z,95497.44
2023-03-20T16:44:09.228Z,95494.22
2023-03-20T16:47:52.163Z,95490.97
2023-03-20T16:51:34.911Z,95503.94
2023-03-20T16:55:22.886Z,95510.03
2023-03-20T16:59:09.508Z,95512.47
2023-03-20T17:02:53.850Z,95517.31
2023-03-20T17:06:39.218Z,95523.81
2023-03-20T17:10:26.997Z,95524.63
2023-03-20T17:14:11.245Z,95534.97
2023-03-20T17:17:54.032Z,95531.31
2023-03-20T17:21:36.779Z,95532.13
2023-03-20T17:25:20.167Z,95535.75
2023-03-20T17:29:02.951Z,95542.81
2023-03-20T17:32:47.202Z,95534.50
2023-03-20T17:36:32.129Z,95537.13
2023-03-20T17:40:19.180Z,95541.75
2023-03-20T17:44:01.967Z,95525.97
2023-03-20T17:47:45.413Z,95532.44
2023-03-20T17:51:29.688Z,95533.00
2023-03-20T17:55:12.513Z,95539.06
2023-03-20T17:58:55.231Z,95543.44
2023-03-20T18:02:38.011Z,95535.72
2023-03-20T18:06:24.550Z,95548.00
2023-03-20T18:10:17.327Z,95549.19
2023-03-20T18:14:01.869Z,95540.47
2023-03-20T18:17:44.541Z,95538.38
2023-03-20T18:21:27.227Z,95549.28
2023-03-20T18:25:11.294Z,95542.59
2023-03-20T18:28:55.568Z,95543.78
2023-03-20T18:32:38.306Z,95536.88
2023-03-20T18:36:22.601Z,95540.16
2023-03-20T18:40:08.844Z,95548.03
2023-03-20T18:43:55.554Z,95544.34
2023-03-20T18:47:38.294Z,95546.34
2023-03-20T18:51:21.680Z,95554.44
2023-03-20T18:55:04.649Z,95557.06
2023-03-20T18:58:48.569Z,95555.66
2023-03-20T19:02:32.876Z,95564.53
2023-03-20T19:06:17.695Z,95567.78
2023-03-20T19:10:00.423Z,95568.19
2023-03-20T19:13:45.461Z,95563.94
2023-03-20T19:17:28.124Z,95564.94
2023-03-20T19:21:12.132Z,95565.66
2023-03-20T19:24:54.787Z,95566.38
2023-03-20T19:28:41.163Z,95562.09
2023-03-20T19:32:24.255Z,95567.72
2023-03-20T19:36:07.791Z,95569.97
2023-03-20T19:39:51.993Z,95568.38
2023-03-20T19:43:42.585Z,95571.44
2023-03-20T19:47:34.429Z,95572.63
2023-03-20T19:51:18.513Z,95566.75
2023-03-20T19:55:03.795Z,95568.78
2023-03-20T19:58:46.707Z,95570.00
2023-03-20T20:02:29.633Z,95570.81
2023-03-20T20:06:12.457Z,95565.13
2023-03-20T20:09:55.308Z,95571.16
2023-03-20T20:13:53.454Z,95572.28
2023-03-20T20:17:42.450Z,95572.22
2023-03-20T20:25:28.054Z,95563.03
2023-03-20T20:29:12.069Z,95572.53
2023-03-20T20:33:02.846Z,95567.28
2023-03-20T20:40:49.921Z,95574.72
2023-03-20T20:44:34.034Z,95568.66
2023-03-20T20:48:17.388Z,95567.66
2023-03-20T20:52:00.110Z,95571.06
2023-03-20T20:55:42.768Z,95576.47
2023-03-20T20:59:25.618Z,95571.88
2023-03-20T21:03:09.713Z,95570.25
2023-03-20T21:07:10.705Z,95574.03
2023-03-20T21:10:54.013Z,95570.16
2023-03-20T21:14:37.151Z,95567.53
2023-03-20T21:18:21.175Z,95576.16
2023-03-20T21:22:07.384Z,95574.72
2023-03-20T21:25:50.298Z,95578.09
2023-03-20T21:29:33.118Z,95577.22
2023-03-20T21:33:16.029Z,95574.91
2023-03-20T21:37:56.114Z,95570.59
2023-03-20T21:41:10.119Z,95577.50
2023-03-20T21:45:54.298Z,95572.59
2023-03-20T21:49:46.554Z,95568.72
2023-03-20T21:53:45.981Z,95572.53
2023-03-20T21:57:42.767Z,95561.59
2023-03-20T22:01:53.835Z,95561.50
2023-03-20T22:05:48.604Z,95570.16
2023-03-20T22:14:12.645Z,95570.53
2023-03-20T22:22:12.060Z,95563.13
2023-03-20T22:26:00.718Z,95568.94
2023-03-20T22:30:07.134Z,95571.13
2023-03-20T22:45:52.064Z,95569.78
2023-03-20T22:49:42.497Z,95566.09
2023-03-20T22:53:25.381Z,95563.03
2023-03-20T22:57:09.449Z,95563.66
2023-03-20T23:00:54.922Z,95566.81
2023-03-20T23:04:37.704Z,95564.19
2023-03-20T23:08:20.955Z,95557.94
2023-03-20T23:12:03.692Z,95557.94
2023-03-20T23:15:50.597Z,95557.94
2023-03-20T23:19:44.801Z,95554.19
2023-03-20T23:23:29.974Z,95555.16
2023-03-20T23:27:12.709Z,95554.00
2023-03-20T23:31:09.395Z,95546.75
2023-03-20T23:34:52.636Z,95538.25
2023-03-20T23:38:35.863Z,95544.13
2023-03-20T23:42:29.949Z,95531.22
2023-03-20T23:46:15.078Z,95540.69
2023-03-20T23:49:57.793Z,95535.03
2023-03-20T23:53:40.653Z,95533.84
2023-03-20T23:57:23.300Z,95534.66
